MSC Divina — 3FFA5 — position and weather

sailwx.info

Track history (hours):
 
Tides and Currents Weather Stations Pressure Air Temp Water Temp Dewpoint Dewpoint Depression Visibility Wind Speed Wind Dir Waves Ship Positions

MSC Divina

Last reported at 2015-Jul-07 04:17 UTC. Time now 2015-Jul-07 04:37 UTC.
Position N 40°48' E 003°46'.

Length 333 m; draft 8.7 m.

Type: Passenger vessel. MMSI: 373178000.

Date/timePositionNaut miles runAvg speedWind from/ knotsBaromVisibWave heightAir tempDewpointWater temp
2015-Jul-07 04:17N 40°48' E 003°46'1318.2
2015-Jul-07 03:33N 40°58' E 003°59'1918.0
2015-Jul-07 02:31N 41°11' E 004°16'1717.9
2015-Jul-07 01:33N 41°24' E 004°32'1817.6
2015-Jul-07 00:32N 41°37' E 004°48'1717.8
2015-Jul-06 23:34N 41°49' E 005°05'1817.6
2015-Jul-06 22:33N 42°02' E 005°21'1717.4
2015-Jul-06 21:33N 42°14' E 005°37'1817.5
2015-Jul-06 20:33N 42°27' E 005°54'1817.8
2015-Jul-06 19:33N 42°40' E 006°11'1817.8
2015-Jul-06 18:33N 42°53' E 006°28'1818.0
2015-Jul-06 17:33N 43°06' E 006°45'1817.9
2015-Jul-06 16:33N 43°22' E 006°55'11 9.8
2015-Jul-06 15:23N 43°32' E 007°01'0 0.0
2015-Jul-06 14:22N 43°32' E 007°01'0 0.0
2015-Jul-06 13:29N 43°32' E 007°01'0 0.0
2015-Jul-06 12:32N 43°32' E 007°01'0 0.0
2015-Jul-06 11:23N 43°32' E 007°01'0 0.0
2015-Jul-06 10:29N 43°32' E 007°01'0 0.0
2015-Jul-06 09:32N 43°32' E 007°01'0 0.0
2015-Jul-06 08:33N 43°32' E 007°01'0 0.0
2015-Jul-06 07:33N 43°32' E 007°01'0 0.0
2015-Jul-06 06:28N 43°32' E 007°01'6 6.5
2015-Jul-06 05:33N 43°28' E 007°07'2120.9
2015-Jul-06 04:33N 43°31' E 007°35'1918.9
2015-Jul-06 03:34N 43°34' E 008°01'1818.3
2015-Jul-06 02:34N 43°39' E 008°25'1817.9
2015-Jul-06 01:33N 43°44' E 008°49'1817.7
2015-Jul-06 00:33N 43°50' E 009°12'1717.2
2015-Jul-05 23:34N 43°56' E 009°34'1514.5
2015-Jul-05 22:33N 44°04' E 009°51'2 2.4
2015-Jul-05 21:31N 44°06' E 009°50'0 0.0
2015-Jul-05 20:31N 44°06' E 009°50'0 0.0
2015-Jul-05 19:31N 44°06' E 009°50'0 0.0
2015-Jul-05 18:31N 44°06' E 009°50'0 0.0
2015-Jul-05 17:31N 44°06' E 009°50'0 0.0
2015-Jul-05 16:32N 44°06' E 009°50'0 0.0
2015-Jul-05 15:33N 44°06' E 009°50'0 0.0
2015-Jul-05 14:33N 44°06' E 009°50'0 0.0
2015-Jul-05 13:33N 44°06' E 009°50'0 0.0
2015-Jul-05 12:32N 44°06' E 009°50'0 0.0
2015-Jul-05 11:32N 44°06' E 009°50'0 0.0
2015-Jul-05 10:32N 44°06' E 009°50'0 0.0
2015-Jul-05 09:32N 44°06' E 009°50'0 0.0
2015-Jul-05 08:32N 44°06' E 009°50'0 0.0
2015-Jul-05 07:32N 44°06' E 009°50'0 0.0
2015-Jul-05 06:32N 44°06' E 009°50'0 0.0
2015-Jul-05 05:31N 44°06' E 009°50'3 2.9
2015-Jul-05 04:33N 44°04' E 009°51'1413.6
2015-Jul-05 03:34N 43°50' E 009°51'1817.5
2015-Jul-05 02:33N 43°35' E 009°40'1717.4
2015-Jul-05 01:34N 43°19' E 009°31'1717.0
2015-Jul-05 00:34N 43°11' E 009°52'1615.9
2015-Jul-04 23:34N 42°57' E 010°01'1716.9
2015-Jul-04 22:33N 42°40' E 010°06'1817.6
2015-Jul-04 21:33N 42°29' E 010°25'1717.4
2015-Jul-04 20:34N 42°18' E 010°43'1717.2
2015-Jul-04 19:34N 42°08' E 011°01'2017.6
2015-Jul-04 18:24N 42°06' E 011°29'13 7.0
2015-Jul-04 16:29N 42°06' E 011°47'0 0.0
2015-Jul-04 15:29N 42°06' E 011°47'0 0.0
2015-Jul-04 14:20N 42°06' E 011°47'0 0.0
2015-Jul-04 13:32N 42°06' E 011°47'0 0.0
2015-Jul-04 12:26N 42°06' E 011°47'0 0.0
2015-Jul-04 05:26N 42°06' E 011°47'0 0.1
2015-Jul-04 04:17N 42°06' E 011°47'9814.6
2015-Jul-03 21:33N 40°41' E 012°51'1817.2
2015-Jul-03 20:32N 40°36' E 013°13'1616.9
2015-Jul-03 19:33N 40°35' E 013°35'1717.3
2015-Jul-03 18:33N 40°36' E 013°58'1717.4
2015-Jul-03 17:33N 40°47' E 014°15'3 1.4
2015-Jul-03 15:32N 40°50' E 014°16'0 0.0
2015-Jul-03 14:32N 40°50' E 014°16'0 0.0
2015-Jul-03 13:29N 40°50' E 014°16'0 0.0
2015-Jul-03 12:17N 40°50' E 014°16'0 0.0
2015-Jul-03 11:32N 40°50' E 014°16'0 0.0
2015-Jul-03 10:29N 40°50' E 014°16'0 0.0
2015-Jul-03 09:05N 40°50' E 014°16'0 0.0
2015-Jul-03 08:32N 40°50' E 014°16'0 0.0
2015-Jul-03 07:31N 40°50' E 014°16'0 0.0
2015-Jul-03 05:32N 40°50' E 014°16'6 6.1
2015-Jul-03 04:33N 40°45' E 014°12'1616.4
2015-Jul-03 03:33N 40°36' E 013°54'1615.8
2015-Jul-03 02:33N 40°35' E 013°33'9 9.1
2015-Jul-03 01:33N 40°34' E 013°21'9 9.1
2015-Jul-03 00:32N 40°37' E 013°09'9 9.0
2015-Jul-02 23:34N 40°39' E 012°58'9 8.9
2015-Jul-02 22:33N 40°42' E 012°47'10 9.6
2015-Jul-02 21:34N 40°44' E 012°34'1717.4
2015-Jul-02 20:34N 40°49' E 012°12'1817.6
2015-Jul-02 19:33N 40°54' E 011°50'2517.5
2015-Jul-02 18:09N 41°01' E 011°19'1117.3
2015-Jul-02 17:30N 41°04' E 011°04'3417.4
2015-Jul-02 15:34N 41°13' E 010°21'1817.7
2015-Jul-02 14:34N 41°18' E 009°58'1717.5
2015-Jul-02 13:34N 41°22' E 009°36'3215.8
2015-Jul-02 11:32N 41°18' E 008°54'1717.4
2015-Jul-02 10:33N 41°18' E 008°31'1817.6
2015-Jul-02 09:33N 41°18' E 008°08'2117.3
2015-Jul-02 08:22N 41°18' E 007°40'1417.4
2015-Jul-02 07:33N 41°18' E 007°21'1717.4
2015-Jul-02 06:33N 41°17' E 006°58'1717.2
2015-Jul-02 05:33N 41°17' E 006°35'1717.3
2015-Jul-02 04:33N 41°17' E 006°12'1717.3
2015-Jul-02 03:33N 41°17' E 005°49'1717.4
2015-Jul-02 02:34N 41°17' E 005°26'1817.4
2015-Jul-02 01:32N 41°17' E 005°03'1717.3
2015-Jul-02 00:33N 41°17' E 004°40'1717.4
2015-Jul-01 23:33N 41°17' E 004°17'1717.0
2015-Jul-01 22:33N 41°16' E 003°54'1717.0
2015-Jul-01 21:33N 41°16' E 003°32'1717.0
2015-Jul-01 20:34N 41°16' E 003°09'1716.8
2015-Jul-01 19:33N 41°16' E 002°46'1716.9
2015-Jul-01 18:33N 41°16' E 002°24'1111.5
2015-Jul-01 17:33N 41°21' E 002°10'1 0.9
2015-Jul-01 16:33N 41°22' E 002°11'0 0.0
2015-Jul-01 15:26N 41°22' E 002°11'0 0.0
2015-Jul-01 14:20N 41°22' E 002°11'0 0.0
2015-Jul-01 12:28N 41°22' E 002°11'0 0.0
2015-Jul-01 11:31N 41°22' E 002°11'0 0.0
2015-Jul-01 10:32N 41°22' E 002°11'0 0.0
2015-Jul-01 09:31N 41°22' E 002°11'0 0.0
2015-Jul-01 08:30N 41°22' E 002°11'0 0.0
2015-Jul-01 07:32N 41°22' E 002°11'3 2.7
2015-Jul-01 06:32N 41°19' E 002°10'1414.7
2015-Jul-01 05:33N 41°05' E 002°12'1716.8
2015-Jul-01 04:33N 40°48' E 002°12'1717.5
2015-Jul-01 03:33N 40°30' E 002°13'1817.6
2015-Jul-01 02:33N 40°13' E 002°14'1817.6
2015-Jul-01 01:33N 39°55' E 002°15'1818.3
2015-Jul-01 00:33N 39°37' E 002°15'1616.3
2015-Jun-30 23:33N 39°26' E 002°31'9 9.1
2015-Jun-30 22:33N 39°33' E 002°38'0 0.0
2015-Jun-30 21:33N 39°33' E 002°38'0 0.0
2015-Jun-30 20:33N 39°33' E 002°38'0 0.0
2015-Jun-30 19:32N 39°33' E 002°38'0 0.0
2015-Jun-30 18:32N 39°33' E 002°38'0 0.0
2015-Jun-30 17:31N 39°33' E 002°38'0 0.0
2015-Jun-30 16:33N 39°33' E 002°38'0 0.0
2015-Jun-30 15:33N 39°33' E 002°38'0 0.0
2015-Jun-30 14:31N 39°33' E 002°38'0 0.0
2015-Jun-30 13:31N 39°33' E 002°38'0 0.0
2015-Jun-30 12:31N 39°33' E 002°38'2 2.1
2015-Jun-30 11:33N 39°31' E 002°38'1211.9
2015-Jun-30 10:33N 39°27' E 002°24'1110.8
2015-Jun-30 09:33N 39°35' E 002°15'1717.2
2015-Jun-30 08:34N 39°48' E 002°30'1817.9
2015-Jun-30 07:33N 40°01' E 002°46'1717.3
2015-Jun-30 06:33N 40°13' E 003°02'1717.3
2015-Jun-30 05:33N 40°26' E 003°18'1817.6
2015-Jun-30 04:32N 40°39' E 003°34'1818.1
2015-Jun-30 03:33N 40°51' E 003°50'1818.2
2015-Jun-30 02:33N 41°04' E 004°07'1818.1
2015-Jun-30 01:33N 41°18' E 004°24'1818.1
2015-Jun-30 00:33N 41°31' E 004°41'1818.0
2015-Jun-29 23:33N 41°43' E 004°57'1817.9
2015-Jun-29 22:33N 41°56' E 005°14'1817.9
2015-Jun-29 21:33N 42°09' E 005°31'1818.1
2015-Jun-29 20:33N 42°22' E 005°48'1817.9
2015-Jun-29 19:33N 42°35' E 006°04'1818.0
2015-Jun-29 18:33N 42°48' E 006°22'1918.0
2015-Jun-29 17:30N 43°02' E 006°39'1817.8
2015-Jun-29 16:30N 43°17' E 006°53'1616.8
2015-Jun-29 15:33N 43°31' E 007°01'1 1.0
2015-Jun-29 14:33N 43°32' E 007°01'0 0.0
2015-Jun-29 13:33N 43°32' E 007°01'0 0.0
2015-Jun-29 12:33N 43°32' E 007°01'0 0.0
2015-Jun-29 11:25N 43°32' E 007°01'0 0.0
2015-Jun-29 10:33N 43°32' E 007°01'0 0.0
2015-Jun-29 09:32N 43°32' E 007°01'0 0.0
2015-Jun-29 08:33N 43°32' E 007°01'0 0.0
2015-Jun-29 07:24N 43°32' E 007°01'0 0.0
2015-Jun-29 06:26N 43°32' E 007°01'5 5.7
2015-Jun-29 05:33N 43°29' E 007°06'1818.5
2015-Jun-29 04:34N 43°30' E 007°31'1818.1
2015-Jun-29 03:34N 43°33' E 007°56'1817.8
2015-Jun-29 02:34N 43°37' E 008°20'1817.7
2015-Jun-29 01:34N 43°43' E 008°43'1817.8
2015-Jun-29 00:34N 43°48' E 009°06'1817.5
2015-Jun-28 23:34N 43°54' E 009°29'1717.1
2015-Jun-28 22:34N 44°00' E 009°52'6 6.2
2015-Jun-28 21:31N 44°06' E 009°50'0 0.0
2015-Jun-28 20:31N 44°06' E 009°50'0 0.0
2015-Jun-28 19:31N 44°06' E 009°50'0 0.0
2015-Jun-28 18:31N 44°06' E 009°50'0 0.0
2015-Jun-28 17:31N 44°06' E 009°50'0 0.0
2015-Jun-28 16:31N 44°06' E 009°50'0 0.0
2015-Jun-28 15:31N 44°06' E 009°50'0 0.0
2015-Jun-28 14:31N 44°06' E 009°50'0 0.0
2015-Jun-28 13:31N 44°06' E 009°50'0 0.0
2015-Jun-28 12:31N 44°06' E 009°50'0 0.0
2015-Jun-28 11:33N 44°06' E 009°50'0 0.0
2015-Jun-28 10:33N 44°06' E 009°50'0 0.0
2015-Jun-28 09:33N 44°06' E 009°50'0 0.0
2015-Jun-28 08:32N 44°06' E 009°50'0 0.0
2015-Jun-28 07:32N 44°06' E 009°50'0 0.0
2015-Jun-28 06:31N 44°06' E 009°50'0 0.0
2015-Jun-28 05:31N 44°06' E 009°50'3 2.8
2015-Jun-28 04:33N 44°04' E 009°51'1212.4
2015-Jun-28 03:33N 43°51' E 009°52'1817.5
2015-Jun-28 02:33N 43°36' E 009°40'1515.3
2015-Jun-28 01:33N 43°22' E 009°31'1514.7
2015-Jun-28 00:33N 43°13' E 009°46'1616.3
2015-Jun-27 23:33N 43°00' E 010°01'1817.6
2015-Jun-27 22:34N 42°43' E 010°03'1817.9
2015-Jun-27 21:33N 42°32' E 010°22'1917.7
2015-Jun-27 20:30N 42°19' E 010°41'1617.3
2015-Jun-27 19:33N 42°09' E 010°58'  
Track history (hours):
 
Tides and Currents Weather Stations Pressure Air Temp Water Temp Dewpoint Dewpoint Depression Visibility Wind Speed Wind Dir Waves Ship Positions

MSC Divina

Last reported at 2015-Jul-07 04:17 UTC. Time now 2015-Jul-07 04:37 UTC.
Position N 40°48' E 003°46'.

Length 333 m; draft 8.7 m.

Type: Passenger vessel. MMSI: 373178000.

Date/timePositionNaut miles runAvg speedWind from/ knotsBaromVisibWave heightAir tempDewpointWater temp
2015-Jul-07 04:17N 40°48' E 003°46'1318.2
2015-Jul-07 03:33N 40°58' E 003°59'1918.0
2015-Jul-07 02:31N 41°11' E 004°16'1717.9
2015-Jul-07 01:33N 41°24' E 004°32'1817.6
2015-Jul-07 00:32N 41°37' E 004°48'1717.8
2015-Jul-06 23:34N 41°49' E 005°05'1817.6
2015-Jul-06 22:33N 42°02' E 005°21'1717.4
2015-Jul-06 21:33N 42°14' E 005°37'1817.5
2015-Jul-06 20:33N 42°27' E 005°54'1817.8
2015-Jul-06 19:33N 42°40' E 006°11'1817.8
2015-Jul-06 18:33N 42°53' E 006°28'1818.0
2015-Jul-06 17:33N 43°06' E 006°45'1817.9
2015-Jul-06 16:33N 43°22' E 006°55'11 9.8
2015-Jul-06 15:23N 43°32' E 007°01'0 0.0
2015-Jul-06 14:22N 43°32' E 007°01'0 0.0
2015-Jul-06 13:29N 43°32' E 007°01'0 0.0
2015-Jul-06 12:32N 43°32' E 007°01'0 0.0
2015-Jul-06 11:23N 43°32' E 007°01'0 0.0
2015-Jul-06 10:29N 43°32' E 007°01'0 0.0
2015-Jul-06 09:32N 43°32' E 007°01'0 0.0
2015-Jul-06 08:33N 43°32' E 007°01'0 0.0
2015-Jul-06 07:33N 43°32' E 007°01'0 0.0
2015-Jul-06 06:28N 43°32' E 007°01'6 6.5
2015-Jul-06 05:33N 43°28' E 007°07'2120.9
2015-Jul-06 04:33N 43°31' E 007°35'1918.9
2015-Jul-06 03:34N 43°34' E 008°01'1818.3
2015-Jul-06 02:34N 43°39' E 008°25'1817.9
2015-Jul-06 01:33N 43°44' E 008°49'1817.7
2015-Jul-06 00:33N 43°50' E 009°12'1717.2
2015-Jul-05 23:34N 43°56' E 009°34'1514.5
2015-Jul-05 22:33N 44°04' E 009°51'2 2.4
2015-Jul-05 21:31N 44°06' E 009°50'0 0.0
2015-Jul-05 20:31N 44°06' E 009°50'0 0.0
2015-Jul-05 19:31N 44°06' E 009°50'0 0.0
2015-Jul-05 18:31N 44°06' E 009°50'0 0.0
2015-Jul-05 17:31N 44°06' E 009°50'0 0.0
2015-Jul-05 16:32N 44°06' E 009°50'0 0.0
2015-Jul-05 15:33N 44°06' E 009°50'0 0.0
2015-Jul-05 14:33N 44°06' E 009°50'0 0.0
2015-Jul-05 13:33N 44°06' E 009°50'0 0.0
2015-Jul-05 12:32N 44°06' E 009°50'0 0.0
2015-Jul-05 11:32N 44°06' E 009°50'0 0.0
2015-Jul-05 10:32N 44°06' E 009°50'0 0.0
2015-Jul-05 09:32N 44°06' E 009°50'0 0.0
2015-Jul-05 08:32N 44°06' E 009°50'0 0.0
2015-Jul-05 07:32N 44°06' E 009°50'0 0.0
2015-Jul-05 06:32N 44°06' E 009°50'0 0.0
2015-Jul-05 05:31N 44°06' E 009°50'3 2.9
2015-Jul-05 04:33N 44°04' E 009°51'1413.6
2015-Jul-05 03:34N 43°50' E 009°51'1817.5
2015-Jul-05 02:33N 43°35' E 009°40'1717.4
2015-Jul-05 01:34N 43°19' E 009°31'1717.0
2015-Jul-05 00:34N 43°11' E 009°52'1615.9
2015-Jul-04 23:34N 42°57' E 010°01'1716.9
2015-Jul-04 22:33N 42°40' E 010°06'1817.6
2015-Jul-04 21:33N 42°29' E 010°25'1717.4
2015-Jul-04 20:34N 42°18' E 010°43'1717.2
2015-Jul-04 19:34N 42°08' E 011°01'2017.6
2015-Jul-04 18:24N 42°06' E 011°29'13 7.0
2015-Jul-04 16:29N 42°06' E 011°47'0 0.0
2015-Jul-04 15:29N 42°06' E 011°47'0 0.0
2015-Jul-04 14:20N 42°06' E 011°47'0 0.0
2015-Jul-04 13:32N 42°06' E 011°47'0 0.0
2015-Jul-04 12:26N 42°06' E 011°47'0 0.0
2015-Jul-04 05:26N 42°06' E 011°47'0 0.1
2015-Jul-04 04:17N 42°06' E 011°47'9814.6
2015-Jul-03 21:33N 40°41' E 012°51'1817.2
2015-Jul-03 20:32N 40°36' E 013°13'1616.9
2015-Jul-03 19:33N 40°35' E 013°35'1717.3
2015-Jul-03 18:33N 40°36' E 013°58'1717.4
2015-Jul-03 17:33N 40°47' E 014°15'3 1.4
2015-Jul-03 15:32N 40°50' E 014°16'0 0.0
2015-Jul-03 14:32N 40°50' E 014°16'0 0.0
2015-Jul-03 13:29N 40°50' E 014°16'0 0.0
2015-Jul-03 12:17N 40°50' E 014°16'0 0.0
2015-Jul-03 11:32N 40°50' E 014°16'0 0.0
2015-Jul-03 10:29N 40°50' E 014°16'0 0.0
2015-Jul-03 09:05N 40°50' E 014°16'0 0.0
2015-Jul-03 08:32N 40°50' E 014°16'0 0.0
2015-Jul-03 07:31N 40°50' E 014°16'0 0.0
2015-Jul-03 05:32N 40°50' E 014°16'6 6.1
2015-Jul-03 04:33N 40°45' E 014°12'1616.4
2015-Jul-03 03:33N 40°36' E 013°54'1615.8
2015-Jul-03 02:33N 40°35' E 013°33'9 9.1
2015-Jul-03 01:33N 40°34' E 013°21'9 9.1
2015-Jul-03 00:32N 40°37' E 013°09'9 9.0
2015-Jul-02 23:34N 40°39' E 012°58'9 8.9
2015-Jul-02 22:33N 40°42' E 012°47'10 9.6
2015-Jul-02 21:34N 40°44' E 012°34'1717.4
2015-Jul-02 20:34N 40°49' E 012°12'1817.6
2015-Jul-02 19:33N 40°54' E 011°50'2517.5
2015-Jul-02 18:09N 41°01' E 011°19'1117.3
2015-Jul-02 17:30N 41°04' E 011°04'3417.4
2015-Jul-02 15:34N 41°13' E 010°21'1817.7
2015-Jul-02 14:34N 41°18' E 009°58'1717.5
2015-Jul-02 13:34N 41°22' E 009°36'3215.8
2015-Jul-02 11:32N 41°18' E 008°54'1717.4
2015-Jul-02 10:33N 41°18' E 008°31'1817.6
2015-Jul-02 09:33N 41°18' E 008°08'2117.3
2015-Jul-02 08:22N 41°18' E 007°40'1417.4
2015-Jul-02 07:33N 41°18' E 007°21'1717.4
2015-Jul-02 06:33N 41°17' E 006°58'1717.2
2015-Jul-02 05:33N 41°17' E 006°35'1717.3
2015-Jul-02 04:33N 41°17' E 006°12'1717.3
2015-Jul-02 03:33N 41°17' E 005°49'1717.4
2015-Jul-02 02:34N 41°17' E 005°26'1817.4
2015-Jul-02 01:32N 41°17' E 005°03'1717.3
2015-Jul-02 00:33N 41°17' E 004°40'1717.4
2015-Jul-01 23:33N 41°17' E 004°17'1717.0
2015-Jul-01 22:33N 41°16' E 003°54'1717.0
2015-Jul-01 21:33N 41°16' E 003°32'1717.0
2015-Jul-01 20:34N 41°16' E 003°09'1716.8
2015-Jul-01 19:33N 41°16' E 002°46'1716.9
2015-Jul-01 18:33N 41°16' E 002°24'1111.5
2015-Jul-01 17:33N 41°21' E 002°10'1 0.9
2015-Jul-01 16:33N 41°22' E 002°11'0 0.0
2015-Jul-01 15:26N 41°22' E 002°11'0 0.0
2015-Jul-01 14:20N 41°22' E 002°11'0 0.0
2015-Jul-01 12:28N 41°22' E 002°11'0 0.0
2015-Jul-01 11:31N 41°22' E 002°11'0 0.0
2015-Jul-01 10:32N 41°22' E 002°11'0 0.0
2015-Jul-01 09:31N 41°22' E 002°11'0 0.0
2015-Jul-01 08:30N 41°22' E 002°11'0 0.0
2015-Jul-01 07:32N 41°22' E 002°11'3 2.7
2015-Jul-01 06:32N 41°19' E 002°10'1414.7
2015-Jul-01 05:33N 41°05' E 002°12'1716.8
2015-Jul-01 04:33N 40°48' E 002°12'1717.5
2015-Jul-01 03:33N 40°30' E 002°13'1817.6
2015-Jul-01 02:33N 40°13' E 002°14'1817.6
2015-Jul-01 01:33N 39°55' E 002°15'1818.3
2015-Jul-01 00:33N 39°37' E 002°15'1616.3
2015-Jun-30 23:33N 39°26' E 002°31'9 9.1
2015-Jun-30 22:33N 39°33' E 002°38'0 0.0
2015-Jun-30 21:33N 39°33' E 002°38'0 0.0
2015-Jun-30 20:33N 39°33' E 002°38'0 0.0
2015-Jun-30 19:32N 39°33' E 002°38'0 0.0
2015-Jun-30 18:32N 39°33' E 002°38'0 0.0
2015-Jun-30 17:31N 39°33' E 002°38'0 0.0
2015-Jun-30 16:33N 39°33' E 002°38'0 0.0
2015-Jun-30 15:33N 39°33' E 002°38'0 0.0
2015-Jun-30 14:31N 39°33' E 002°38'0 0.0
2015-Jun-30 13:31N 39°33' E 002°38'0 0.0
2015-Jun-30 12:31N 39°33' E 002°38'2 2.1
2015-Jun-30 11:33N 39°31' E 002°38'1211.9
2015-Jun-30 10:33N 39°27' E 002°24'1110.8
2015-Jun-30 09:33N 39°35' E 002°15'1717.2
2015-Jun-30 08:34N 39°48' E 002°30'1817.9
2015-Jun-30 07:33N 40°01' E 002°46'1717.3
2015-Jun-30 06:33N 40°13' E 003°02'1717.3
2015-Jun-30 05:33N 40°26' E 003°18'1817.6
2015-Jun-30 04:32N 40°39' E 003°34'1818.1
2015-Jun-30 03:33N 40°51' E 003°50'1818.2
2015-Jun-30 02:33N 41°04' E 004°07'1818.1
2015-Jun-30 01:33N 41°18' E 004°24'1818.1
2015-Jun-30 00:33N 41°31' E 004°41'1818.0
2015-Jun-29 23:33N 41°43' E 004°57'1817.9
2015-Jun-29 22:33N 41°56' E 005°14'1817.9
2015-Jun-29 21:33N 42°09' E 005°31'1818.1
2015-Jun-29 20:33N 42°22' E 005°48'1817.9
2015-Jun-29 19:33N 42°35' E 006°04'1818.0
2015-Jun-29 18:33N 42°48' E 006°22'1918.0
2015-Jun-29 17:30N 43°02' E 006°39'1817.8
2015-Jun-29 16:30N 43°17' E 006°53'1616.8
2015-Jun-29 15:33N 43°31' E 007°01'1 1.0
2015-Jun-29 14:33N 43°32' E 007°01'0 0.0
2015-Jun-29 13:33N 43°32' E 007°01'0 0.0
2015-Jun-29 12:33N 43°32' E 007°01'0 0.0
2015-Jun-29 11:25N 43°32' E 007°01'0 0.0
2015-Jun-29 10:33N 43°32' E 007°01'0 0.0
2015-Jun-29 09:32N 43°32' E 007°01'0 0.0
2015-Jun-29 08:33N 43°32' E 007°01'0 0.0
2015-Jun-29 07:24N 43°32' E 007°01'0 0.0
2015-Jun-29 06:26N 43°32' E 007°01'5 5.7
2015-Jun-29 05:33N 43°29' E 007°06'1818.5
2015-Jun-29 04:34N 43°30' E 007°31'1818.1
2015-Jun-29 03:34N 43°33' E 007°56'1817.8
2015-Jun-29 02:34N 43°37' E 008°20'1817.7
2015-Jun-29 01:34N 43°43' E 008°43'1817.8
2015-Jun-29 00:34N 43°48' E 009°06'1817.5
2015-Jun-28 23:34N 43°54' E 009°29'1717.1
2015-Jun-28 22:34N 44°00' E 009°52'6 6.2
2015-Jun-28 21:31N 44°06' E 009°50'0 0.0
2015-Jun-28 20:31N 44°06' E 009°50'0 0.0
2015-Jun-28 19:31N 44°06' E 009°50'0 0.0
2015-Jun-28 18:31N 44°06' E 009°50'0 0.0
2015-Jun-28 17:31N 44°06' E 009°50'0 0.0
2015-Jun-28 16:31N 44°06' E 009°50'0 0.0
2015-Jun-28 15:31N 44°06' E 009°50'0 0.0
2015-Jun-28 14:31N 44°06' E 009°50'0 0.0
2015-Jun-28 13:31N 44°06' E 009°50'0 0.0
2015-Jun-28 12:31N 44°06' E 009°50'0 0.0
2015-Jun-28 11:33N 44°06' E 009°50'0 0.0
2015-Jun-28 10:33N 44°06' E 009°50'0 0.0
2015-Jun-28 09:33N 44°06' E 009°50'0 0.0
2015-Jun-28 08:32N 44°06' E 009°50'0 0.0
2015-Jun-28 07:32N 44°06' E 009°50'0 0.0
2015-Jun-28 06:31N 44°06' E 009°50'0 0.0
2015-Jun-28 05:31N 44°06' E 009°50'3 2.8
2015-Jun-28 04:33N 44°04' E 009°51'1212.4
2015-Jun-28 03:33N 43°51' E 009°52'1817.5
2015-Jun-28 02:33N 43°36' E 009°40'1515.3
2015-Jun-28 01:33N 43°22' E 009°31'1514.7
2015-Jun-28 00:33N 43°13' E 009°46'1616.3
2015-Jun-27 23:33N 43°00' E 010°01'1817.6
2015-Jun-27 22:34N 42°43' E 010°03'1817.9
2015-Jun-27 21:33N 42°32' E 010°22'1917.7
2015-Jun-27 20:30N 42°19' E 010°41'1617.3
2015-Jun-27 19:33N 42°09' E 010°58'  

Dump ship's entire track history